aviador You're here:

LUKK Decoded Metar

KISHINEV in MOLDOVA
Report Time2017-08-22 16:00:00
UTC Time2017-08-22 16:33:01
Flight Rules vfr VFR
Wind340° at 06 kt
W.Decomp.*RWY 26: 1.7 kt HW 5.8 kt RCW
W.Rank340° ranks 3
Current wind is below 340° avg. (8.0)
Visibility9999 m
Phenomena:N/A
Clouds:Few 049 Hf
Expected CloudBase > 4,000 ft AGL from Temp-Dew spread
CeilingNone
Temp20°C (ISA +6)
Dew Point10°C (53% RH)
AAT17.9°C
QNH1011 hPa
Density Alt1,312 ft
Elevation400 ft
Report Wrong Elevation
Raw Report
METAR LUKK 221600Z 34006KT 9999 FEW049 20/10 Q1011 R26/D NOSIG=

Extra information for LUKK:More info

Metar Taf Metar & Taf Last 4 Metars F.Rules Stats Wind Profile Meteogram Temp Stats Airport Information Weather charts Add Link Nearby VenuesMetar ALERT Operation Metar Decoded Social comments